Terminal Aerodrome Forecast
Issued by NWS Shreveport, LA

Current Version | Previous Version | Text Only | Print | Product List | Glossary On
Versions: 1 2 3 4 5 6 7 8 9 10 11 12 13 14 15 16 17 18 19 20
000
FTUS44 KSHV 230500
TAFELD
TAF
KELD 230531Z 2306/2406 00000KT P6SM SCT250
      TEMPO 2306/2310 5SM BR
     FM231000 00000KT 5SM BR SCT250
     FM231300 VRB03KT P6SM SCT250
     FM231500 VRB04KT P6SM SCT030 BKN250
     FM231800 VRB04KT P6SM SCT045 SCT140 BKN250
     FM240000 VRB03KT P6SM FEW050 SCT140 BKN250=

USA.gov is the U.S. government's official web portal to all federal, state and local government web resources and services.